sensor_id;sensor_type;location;lat;lon;timestamp;pressure;altitude;pressure_sealevel;temperature;humidity
72721;BME280;60835;50.974;10.322;2023-04-05T00:00:54;98587.31;;;-1.00;100.00
72721;BME280;60835;50.974;10.322;2023-04-05T00:03:21;98572.88;;;-1.05;100.00
72721;BME280;60835;50.974;10.322;2023-04-05T00:05:48;98570.72;;;-0.97;100.00
72721;BME280;60835;50.974;10.322;2023-04-05T00:08:15;98558.00;;;-1.02;100.00
72721;BME280;60835;50.974;10.322;2023-04-05T00:10:52;98543.75;;;-0.95;100.00
72721;BME280;60835;50.974;10.322;2023-04-05T00:13:20;98540.22;;;-1.09;100.00
72721;BME280;60835;50.974;10.322;2023-04-05T00:15:54;98501.88;;;-1.04;100.00
72721;BME280;60835;50.974;10.322;2023-04-05T00:18:24;98487.56;;;-1.11;100.00
72721;BME280;60835;50.974;10.322;2023-04-05T00:20:51;98471.19;;;-1.13;100.00
72721;BME280;60835;50.974;10.322;2023-04-05T00:23:18;98447.75;;;-1.28;100.00
72721;BME280;60835;50.974;10.322;2023-04-05T00:25:45;98430.56;;;-1.46;100.00
72721;BME280;60835;50.974;10.322;2023-04-05T00:28:14;98397.72;;;-1.47;100.00
72721;BME280;60835;50.974;10.322;2023-04-05T00:30:40;98380.06;;;-1.40;100.00
72721;BME280;60835;50.974;10.322;2023-04-05T00:33:08;98374.06;;;-1.41;100.00
72721;BME280;60835;50.974;10.322;2023-04-05T00:35:34;98353.47;;;-1.44;100.00
72721;BME280;60835;50.974;10.322;2023-04-05T00:38:01;98344.56;;;-1.40;100.00
72721;BME280;60835;50.974;10.322;2023-04-05T00:40:28;98335.88;;;-1.39;100.00
72721;BME280;60835;50.974;10.322;2023-04-05T00:42:54;98346.09;;;-1.36;100.00
72721;BME280;60835;50.974;10.322;2023-04-05T00:45:20;98363.31;;;-1.35;100.00
72721;BME280;60835;50.974;10.322;2023-04-05T00:47:47;98367.34;;;-1.45;100.00
72721;BME280;60835;50.974;10.322;2023-04-05T00:50:14;98363.69;;;-1.41;100.00
72721;BME280;60835;50.974;10.322;2023-04-05T00:52:41;98345.31;;;-1.53;100.00
72721;BME280;60835;50.974;10.322;2023-04-05T00:55:09;98344.56;;;-1.55;100.00
72721;BME280;60835;50.974;10.322;2023-04-05T00:57:36;98331.19;;;-1.48;100.00
72721;BME280;60835;50.974;10.322;2023-04-05T01:00:05;98316.28;;;-1.60;100.00
72721;BME280;60835;50.974;10.322;2023-04-05T01:02:35;98308.75;;;-1.49;100.00
72721;BME280;60835;50.974;10.322;2023-04-05T01:05:29;98284.84;;;-1.54;100.00
72721;BME280;60835;50.974;10.322;2023-04-05T01:10:32;98270.91;;;-1.53;100.00
72721;BME280;60835;50.974;10.322;2023-04-05T01:13:00;98260.66;;;-1.54;100.00
72721;BME280;60835;50.974;10.322;2023-04-05T01:15:27;98251.84;;;-1.52;100.00
72721;BME280;60835;50.974;10.322;2023-04-05T01:17:54;98250.84;;;-1.49;100.00
72721;BME280;60835;50.974;10.322;2023-04-05T01:20:22;98235.59;;;-1.55;100.00
72721;BME280;60835;50.974;10.322;2023-04-05T01:28:26;98166.50;;;-1.72;100.00
72721;BME280;60835;50.974;10.322;2023-04-05T01:36:49;98105.53;;;-1.79;100.00
72721;BME280;60835;50.974;10.322;2023-04-05T01:39:19;98078.31;;;-1.86;100.00
72721;BME280;60835;50.974;10.322;2023-04-05T01:41:46;98059.78;;;-1.80;100.00
72721;BME280;60835;50.974;10.322;2023-04-05T01:44:12;98028.09;;;-1.85;100.00
72721;BME280;60835;50.974;10.322;2023-04-05T01:46:40;98014.75;;;-1.93;100.00
72721;BME280;60835;50.974;10.322;2023-04-05T01:49:08;98011.63;;;-1.84;100.00
72721;BME280;60835;50.974;10.322;2023-04-05T01:51:34;97992.91;;;-1.89;100.00
72721;BME280;60835;50.974;10.322;2023-04-05T01:54:01;97967.16;;;-1.92;100.00
72721;BME280;60835;50.974;10.322;2023-04-05T01:56:27;97940.91;;;-1.86;100.00
72721;BME280;60835;50.974;10.322;2023-04-05T01:58:54;97929.03;;;-1.90;100.00
72721;BME280;60835;50.974;10.322;2023-04-05T02:01:21;97927.72;;;-1.97;100.00
72721;BME280;60835;50.974;10.322;2023-04-05T02:03:47;97917.06;;;-2.07;100.00
72721;BME280;60835;50.974;10.322;2023-04-05T02:06:14;97911.03;;;-2.07;100.00
72721;BME280;60835;50.974;10.322;2023-04-05T02:08:41;97909.91;;;-2.17;100.00
72721;BME280;60835;50.974;10.322;2023-04-05T02:11:07;97889.34;;;-2.20;100.00
72721;BME280;60835;50.974;10.322;2023-04-05T02:13:34;97881.31;;;-2.16;100.00
72721;BME280;60835;50.974;10.322;2023-04-05T02:16:00;97856.88;;;-2.12;100.00
72721;BME280;60835;50.974;10.322;2023-04-05T02:18:27;97846.97;;;-2.19;100.00
72721;BME280;60835;50.974;10.322;2023-04-05T02:21:01;97842.91;;;-2.23;100.00
72721;BME280;60835;50.974;10.322;2023-04-05T02:23:29;97829.91;;;-2.37;100.00
72721;BME280;60835;50.974;10.322;2023-04-05T02:25:56;97829.72;;;-2.34;100.00
72721;BME280;60835;50.974;10.322;2023-04-05T02:28:22;97828.06;;;-2.35;100.00
72721;BME280;60835;50.974;10.322;2023-04-05T02:30:49;97823.91;;;-2.24;100.00
72721;BME280;60835;50.974;10.322;2023-04-05T02:33:15;97829.28;;;-2.27;100.00
72721;BME280;60835;50.974;10.322;2023-04-05T02:35:41;97820.50;;;-2.24;100.00
72721;BME280;60835;50.974;10.322;2023-04-05T02:38:08;97819.84;;;-2.28;100.00
72721;BME280;60835;50.974;10.322;2023-04-05T02:40:35;97819.56;;;-2.23;100.00
72721;BME280;60835;50.974;10.322;2023-04-05T02:43:01;97813.28;;;-2.19;100.00
72721;BME280;60835;50.974;10.322;2023-04-05T02:45:28;97813.84;;;-2.14;100.00
72721;BME280;60835;50.974;10.322;2023-04-05T02:47:55;97816.06;;;-2.08;100.00
72721;BME280;60835;50.974;10.322;2023-04-05T02:50:22;97818.66;;;-2.08;100.00
72721;BME280;60835;50.974;10.322;2023-04-05T02:52:49;97807.94;;;-2.02;100.00
72721;BME280;60835;50.974;10.322;2023-04-05T02:55:16;97772.47;;;-1.88;100.00
72721;BME280;60835;50.974;10.322;2023-04-05T02:57:42;97732.38;;;-1.82;100.00
72721;BME280;60835;50.974;10.322;2023-04-05T03:00:12;97749.59;;;-1.95;100.00
72721;BME280;60835;50.974;10.322;2023-04-05T03:02:38;97747.19;;;-1.98;100.00
72721;BME280;60835;50.974;10.322;2023-04-05T03:05:05;97734.25;;;-1.98;100.00
72721;BME280;60835;50.974;10.322;2023-04-05T03:07:32;97742.59;;;-2.21;100.00
72721;BME280;60835;50.974;10.322;2023-04-05T03:10:01;97730.38;;;-2.19;100.00
72721;BME280;60835;50.974;10.322;2023-04-05T03:12:28;97716.41;;;-2.31;100.00
72721;BME280;60835;50.974;10.322;2023-04-05T03:14:55;97709.09;;;-2.38;100.00
72721;BME280;60835;50.974;10.322;2023-04-05T03:17:21;97698.25;;;-2.59;100.00
72721;BME280;60835;50.974;10.322;2023-04-05T03:19:48;97677.72;;;-2.76;100.00
72721;BME280;60835;50.974;10.322;2023-04-05T03:22:14;97646.31;;;-2.70;100.00
72721;BME280;60835;50.974;10.322;2023-04-05T03:24:41;97611.09;;;-2.73;100.00
72721;BME280;60835;50.974;10.322;2023-04-05T03:27:07;97591.09;;;-2.85;100.00
72721;BME280;60835;50.974;10.322;2023-04-05T03:29:34;97557.63;;;-2.74;100.00
72721;BME280;60835;50.974;10.322;2023-04-05T03:32:01;97553.66;;;-2.79;100.00
72721;BME280;60835;50.974;10.322;2023-04-05T03:34:27;97537.22;;;-2.92;100.00
72721;BME280;60835;50.974;10.322;2023-04-05T03:39:25;97511.59;;;-2.83;100.00
72721;BME280;60835;50.974;10.322;2023-04-05T03:41:52;97494.44;;;-2.84;100.00
72721;BME280;60835;50.974;10.322;2023-04-05T03:44:18;97493.53;;;-2.97;100.00
72721;BME280;60835;50.974;10.322;2023-04-05T03:46:45;97490.16;;;-2.99;100.00
72721;BME280;60835;50.974;10.322;2023-04-05T03:49:12;97464.28;;;-2.99;100.00
72721;BME280;60835;50.974;10.322;2023-04-05T03:51:39;97464.28;;;-2.99;100.00
72721;BME280;60835;50.974;10.322;2023-04-05T03:54:05;97461.16;;;-3.04;100.00
72721;BME280;60835;50.974;10.322;2023-04-05T03:56:34;97449.72;;;-3.00;100.00
72721;BME280;60835;50.974;10.322;2023-04-05T03:59:01;97461.94;;;-3.02;100.00
72721;BME280;60835;50.974;10.322;2023-04-05T04:01:29;97447.78;;;-3.11;100.00
72721;BME280;60835;50.974;10.322;2023-04-05T04:03:55;97456.56;;;-3.13;100.00
72721;BME280;60835;50.974;10.322;2023-04-05T04:06:22;97443.91;;;-3.03;100.00
72721;BME280;60835;50.974;10.322;2023-04-05T04:08:52;97443.72;;;-3.00;100.00
72721;BME280;60835;50.974;10.322;2023-04-05T04:11:18;97443.81;;;-3.02;100.00
72721;BME280;60835;50.974;10.322;2023-04-05T04:13:45;97438.63;;;-3.02;100.00
72721;BME280;60835;50.974;10.322;2023-04-05T04:16:11;97431.97;;;-3.06;100.00
72721;BME280;60835;50.974;10.322;2023-04-05T04:18:38;97426.16;;;-3.10;100.00
72721;BME280;60835;50.974;10.322;2023-04-05T04:21:05;97414.25;;;-3.12;100.00
72721;BME280;60835;50.974;10.322;2023-04-05T04:23:32;97403.72;;;-3.09;100.00
72721;BME280;60835;50.974;10.322;2023-04-05T04:25:59;97392.59;;;-2.97;100.00
72721;BME280;60835;50.974;10.322;2023-04-05T04:28:27;97386.69;;;-2.99;100.00
72721;BME280;60835;50.974;10.322;2023-04-05T04:30:54;97379.84;;;-3.00;100.00
72721;BME280;60835;50.974;10.322;2023-04-05T04:33:20;97376.44;;;-3.00;100.00
72721;BME280;60835;50.974;10.322;2023-04-05T04:35:47;97365.09;;;-3.12;100.00
72721;BME280;60835;50.974;10.322;2023-04-05T04:38:13;97363.63;;;-3.16;100.00
72721;BME280;60835;50.974;10.322;2023-04-05T04:43:13;97335.91;;;-3.14;100.00
72721;BME280;60835;50.974;10.322;2023-04-05T04:45:43;97324.31;;;-3.21;100.00
72721;BME280;60835;50.974;10.322;2023-04-05T04:48:14;97335.22;;;-3.30;100.00
72721;BME280;60835;50.974;10.322;2023-04-05T04:50:42;97328.84;;;-3.39;100.00
72721;BME280;60835;50.974;10.322;2023-04-05T04:53:14;97304.19;;;-3.30;100.00
72721;BME280;60835;50.974;10.322;2023-04-05T04:55:43;97276.72;;;-3.19;100.00
72721;BME280;60835;50.974;10.322;2023-04-05T04:58:10;97261.44;;;-3.09;100.00
72721;BME280;60835;50.974;10.322;2023-04-05T05:00:38;97256.56;;;-3.14;100.00
72721;BME280;60835;50.974;10.322;2023-04-05T05:03:06;97261.84;;;-3.15;100.00
72721;BME280;60835;50.974;10.322;2023-04-05T05:05:33;97255.00;;;-3.16;100.00
72721;BME280;60835;50.974;10.322;2023-04-05T05:08:00;97246.31;;;-3.15;100.00
72721;BME280;60835;50.974;10.322;2023-04-05T05:10:27;97239.47;;;-3.16;100.00
72721;BME280;60835;50.974;10.322;2023-04-05T05:12:53;97230.81;;;-3.15;100.00
72721;BME280;60835;50.974;10.322;2023-04-05T05:15:20;97228.94;;;-3.13;100.00
72721;BME280;60835;50.974;10.322;2023-04-05T05:17:47;97226.03;;;-3.21;100.00
72721;BME280;60835;50.974;10.322;2023-04-05T05:20:18;97246.91;;;-3.24;100.00
72721;BME280;60835;50.974;10.322;2023-04-05T05:22:45;97218.59;;;-3.13;100.00
72721;BME280;60835;50.974;10.322;2023-04-05T05:25:11;97223.78;;;-3.00;100.00
72721;BME280;60835;50.974;10.322;2023-04-05T05:27:38;97227.72;;;-2.95;100.00
72721;BME280;60835;50.974;10.322;2023-04-05T05:30:05;97239.94;;;-2.97;100.00
72721;BME280;60835;50.974;10.322;2023-04-05T05:32:38;97249.69;;;-2.88;100.00
72721;BME280;60835;50.974;10.322;2023-04-05T05:35:07;97250.34;;;-2.59;100.00
72721;BME280;60835;50.974;10.322;2023-04-05T05:37:34;97282.22;;;-2.71;100.00
72721;BME280;60835;50.974;10.322;2023-04-05T05:40:01;97300.66;;;-2.63;100.00
72721;BME280;60835;50.974;10.322;2023-04-05T05:42:30;97304.22;;;-2.52;100.00
72721;BME280;60835;50.974;10.322;2023-04-05T05:45:01;97311.16;;;-2.39;100.00
72721;BME280;60835;50.974;10.322;2023-04-05T05:47:28;97335.50;;;-2.42;100.00
72721;BME280;60835;50.974;10.322;2023-04-05T05:49:55;97356.09;;;-2.40;100.00
72721;BME280;60835;50.974;10.322;2023-04-05T05:52:21;97378.63;;;-2.28;100.00
72721;BME280;60835;50.974;10.322;2023-04-05T05:54:48;97391.72;;;-2.17;100.00
72721;BME280;60835;50.974;10.322;2023-04-05T05:57:14;97431.88;;;-2.24;100.00
72721;BME280;60835;50.974;10.322;2023-04-05T05:59:44;97443.53;;;-2.17;100.00
72721;BME280;60835;50.974;10.322;2023-04-05T06:02:10;97458.47;;;-1.96;100.00
72721;BME280;60835;50.974;10.322;2023-04-05T06:04:37;97470.34;;;-1.66;100.00
72721;BME280;60835;50.974;10.322;2023-04-05T06:07:03;97510.19;;;-1.55;100.00
72721;BME280;60835;50.974;10.322;2023-04-05T06:09:30;97569.53;;;-1.50;100.00
72721;BME280;60835;50.974;10.322;2023-04-05T06:11:59;97653.88;;;-1.84;100.00
72721;BME280;60835;50.974;10.322;2023-04-05T06:14:26;97650.38;;;-1.44;100.00
72721;BME280;60835;50.974;10.322;2023-04-05T06:16:54;97666.13;;;-1.20;100.00
72721;BME280;60835;50.974;10.322;2023-04-05T06:19:21;97733.78;;;-1.23;100.00
72721;BME280;60835;50.974;10.322;2023-04-05T06:21:48;97774.75;;;-1.01;100.00
72721;BME280;60835;50.974;10.322;2023-04-05T06:24:15;97845.22;;;-0.93;100.00
72721;BME280;60835;50.974;10.322;2023-04-05T06:26:42;97906.34;;;-0.75;100.00
72721;BME280;60835;50.974;10.322;2023-04-05T06:29:09;97969.44;;;-0.46;100.00
72721;BME280;60835;50.974;10.322;2023-04-05T06:31:36;98038.63;;;-0.05;100.00
72721;BME280;60835;50.974;10.322;2023-04-05T06:34:04;98158.88;;;0.40;100.00
72721;BME280;60835;50.974;10.322;2023-04-05T06:36:31;98247.31;;;0.68;100.00
72721;BME280;60835;50.974;10.322;2023-04-05T06:39:00;98439.53;;;1.57;100.00
72721;BME280;60835;50.974;10.322;2023-04-05T06:41:26;98684.50;;;2.15;100.00
72721;BME280;60835;50.974;10.322;2023-04-05T06:43:53;98881.94;;;3.28;100.00
72721;BME280;60835;50.974;10.322;2023-04-05T06:46:21;99033.22;;;3.05;100.00
72721;BME280;60835;50.974;10.322;2023-04-05T06:48:47;99101.63;;;2.84;100.00
72721;BME280;60835;50.974;10.322;2023-04-05T06:51:15;99106.25;;;3.08;100.00
72721;BME280;60835;50.974;10.322;2023-04-05T06:53:42;99192.31;;;3.41;100.00
72721;BME280;60835;50.974;10.322;2023-04-05T06:56:08;99221.59;;;4.45;100.00
72721;BME280;60835;50.974;10.322;2023-04-05T06:58:35;99333.91;;;3.35;100.00
72721;BME280;60835;50.974;10.322;2023-04-05T07:01:02;99352.81;;;4.70;100.00
72721;BME280;60835;50.974;10.322;2023-04-05T07:03:29;99407.25;;;4.23;100.00
72721;BME280;60835;50.974;10.322;2023-04-05T07:05:56;99492.56;;;5.82;100.00
72721;BME280;60835;50.974;10.322;2023-04-05T07:08:25;99595.81;;;6.24;100.00
72721;BME280;60835;50.974;10.322;2023-04-05T07:10:51;99659.41;;;5.74;100.00
72721;BME280;60835;50.974;10.322;2023-04-05T07:13:20;99669.28;;;6.66;100.00
72721;BME280;60835;50.974;10.322;2023-04-05T07:15:46;99684.06;;;5.57;100.00
72721;BME280;60835;50.974;10.322;2023-04-05T07:18:13;99670.47;;;5.79;100.00
72721;BME280;60835;50.974;10.322;2023-04-05T07:20:46;99679.16;;;5.37;100.00
72721;BME280;60835;50.974;10.322;2023-04-05T07:23:13;99681.94;;;7.25;100.00
72721;BME280;60835;50.974;10.322;2023-04-05T07:25:40;99701.50;;;6.96;100.00
72721;BME280;60835;50.974;10.322;2023-04-05T07:28:06;99682.38;;;6.80;100.00
72721;BME280;60835;50.974;10.322;2023-04-05T07:30:33;99689.69;;;6.22;100.00
72721;BME280;60835;50.974;10.322;2023-04-05T07:33:01;99591.84;;;4.47;100.00
72721;BME280;60835;50.974;10.322;2023-04-05T07:35:28;99675.00;;;7.24;100.00
72721;BME280;60835;50.974;10.322;2023-04-05T07:37:55;99694.66;;;8.32;100.00
72721;BME280;60835;50.974;10.322;2023-04-05T07:40:22;99715.28;;;7.77;100.00
72721;BME280;60835;50.974;10.322;2023-04-05T07:42:48;99717.59;;;7.44;100.00
72721;BME280;60835;50.974;10.322;2023-04-05T07:45:15;99702.88;;;6.75;100.00
72721;BME280;60835;50.974;10.322;2023-04-05T07:47:41;99707.91;;;7.82;100.00
72721;BME280;60835;50.974;10.322;2023-04-05T07:50:08;99703.81;;;8.52;100.00
72721;BME280;60835;50.974;10.322;2023-04-05T07:52:36;99710.19;;;7.36;100.00
72721;BME280;60835;50.974;10.322;2023-04-05T07:55:03;99712.38;;;8.67;100.00
72721;BME280;60835;50.974;10.322;2023-04-05T07:57:30;99709.16;;;8.50;100.00
72721;BME280;60835;50.974;10.322;2023-04-05T07:59:57;99704.59;;;8.29;100.00
72721;BME280;60835;50.974;10.322;2023-04-05T08:02:23;99709.31;;;8.73;100.00
72721;BME280;60835;50.974;10.322;2023-04-05T08:04:50;99709.69;;;10.17;100.00
72721;BME280;60835;50.974;10.322;2023-04-05T08:07:17;99724.75;;;7.67;100.00
72721;BME280;60835;50.974;10.322;2023-04-05T08:09:44;99715.47;;;8.84;100.00
72721;BME280;60835;50.974;10.322;2023-04-05T08:12:11;99721.75;;;8.22;100.00
72721;BME280;60835;50.974;10.322;2023-04-05T08:14:37;99725.34;;;8.46;100.00
72721;BME280;60835;50.974;10.322;2023-04-05T08:17:04;99718.50;;;9.49;100.00
72721;BME280;60835;50.974;10.322;2023-04-05T08:19:30;99724.81;;;9.82;100.00
72721;BME280;60835;50.974;10.322;2023-04-05T08:21:57;99729.53;;;9.43;100.00
72721;BME280;60835;50.974;10.322;2023-04-05T08:24:24;99714.06;;;9.15;100.00
72721;BME280;60835;50.974;10.322;2023-04-05T08:26:52;99725.16;;;9.66;100.00
72721;BME280;60835;50.974;10.322;2023-04-05T08:29:18;99727.22;;;9.04;100.00
72721;BME280;60835;50.974;10.322;2023-04-05T08:31:45;99719.34;;;10.40;100.00
72721;BME280;60835;50.974;10.322;2023-04-05T08:34:12;99717.59;;;9.72;100.00
72721;BME280;60835;50.974;10.322;2023-04-05T08:36:38;99726.13;;;9.76;100.00
72721;BME280;60835;50.974;10.322;2023-04-05T08:39:05;99721.16;;;8.91;100.00
72721;BME280;60835;50.974;10.322;2023-04-05T08:41:34;99707.19;;;11.85;100.00
72721;BME280;60835;50.974;10.322;2023-04-05T08:44:02;99708.25;;;12.34;100.00
72721;BME280;60835;50.974;10.322;2023-04-05T08:46:31;99707.22;;;12.65;100.00
72721;BME280;60835;50.974;10.322;2023-04-05T08:48:59;99704.44;;;12.27;100.00
72721;BME280;60835;50.974;10.322;2023-04-05T08:51:27;99710.09;;;11.41;100.00
72721;BME280;60835;50.974;10.322;2023-04-05T08:53:54;99702.31;;;12.20;100.00
72721;BME280;60835;50.974;10.322;2023-04-05T08:56:23;99715.84;;;10.39;100.00
72721;BME280;60835;50.974;10.322;2023-04-05T08:59:04;99712.28;;;10.72;100.00
72721;BME280;60835;50.974;10.322;2023-04-05T09:01:31;99702.66;;;12.86;100.00
72721;BME280;60835;50.974;10.322;2023-04-05T09:03:59;99715.66;;;12.40;100.00
72721;BME280;60835;50.974;10.322;2023-04-05T09:06:26;99717.63;;;10.39;100.00
72721;BME280;60835;50.974;10.322;2023-04-05T09:08:57;99707.78;;;10.30;100.00
72721;BME280;60835;50.974;10.322;2023-04-05T09:11:24;99706.19;;;9.83;100.00
72721;BME280;60835;50.974;10.322;2023-04-05T09:13:50;99708.81;;;8.68;100.00
72721;BME280;60835;50.974;10.322;2023-04-05T09:16:19;99720.13;;;7.95;100.00
72721;BME280;60835;50.974;10.322;2023-04-05T09:18:46;99724.75;;;7.92;100.00
72721;BME280;60835;50.974;10.322;2023-04-05T09:21:14;99713.03;;;8.09;100.00
72721;BME280;60835;50.974;10.322;2023-04-05T09:23:52;99706.94;;;8.57;100.00
72721;BME280;60835;50.974;10.322;2023-04-05T09:26:23;99713.59;;;8.63;100.00
72721;BME280;60835;50.974;10.322;2023-04-05T09:28:49;99701.84;;;8.67;100.00
72721;BME280;60835;50.974;10.322;2023-04-05T09:31:34;99699.88;;;7.96;100.00
72721;BME280;60835;50.974;10.322;2023-04-05T09:34:02;99706.88;;;8.46;100.00
72721;BME280;60835;50.974;10.322;2023-04-05T09:36:29;99706.53;;;8.02;100.00
72721;BME280;60835;50.974;10.322;2023-04-05T09:39:07;99697.09;;;8.35;100.00
72721;BME280;60835;50.974;10.322;2023-04-05T09:41:34;99697.47;;;8.54;100.00
72721;BME280;60835;50.974;10.322;2023-04-05T09:44:01;99702.97;;;8.26;100.00
72721;BME280;60835;50.974;10.322;2023-04-05T09:46:29;99690.25;;;10.18;100.00
72721;BME280;60835;50.974;10.322;2023-04-05T09:48:56;99694.53;;;10.08;100.00
72721;BME280;60835;50.974;10.322;2023-04-05T09:51:23;99693.91;;;8.43;100.00
72721;BME280;60835;50.974;10.322;2023-04-05T09:54:00;99698.75;;;8.24;100.00
72721;BME280;60835;50.974;10.322;2023-04-05T09:56:28;99615.16;;;7.77;100.00
72721;BME280;60835;50.974;10.322;2023-04-05T09:59:01;99705.59;;;7.77;100.00
72721;BME280;60835;50.974;10.322;2023-04-05T10:01:31;99695.00;;;8.03;100.00
72721;BME280;60835;50.974;10.322;2023-04-05T10:03:58;99694.38;;;6.57;100.00
72721;BME280;60835;50.974;10.322;2023-04-05T10:06:33;99691.84;;;7.97;100.00
72721;BME280;60835;50.974;10.322;2023-04-05T10:09:00;99685.31;;;8.03;100.00
72721;BME280;60835;50.974;10.322;2023-04-05T10:11:27;99685.00;;;8.56;100.00
72721;BME280;60835;50.974;10.322;2023-04-05T10:13:54;99694.63;;;7.46;100.00
72721;BME280;60835;50.974;10.322;2023-04-05T10:16:22;99687.31;;;7.99;100.00
72721;BME280;60835;50.974;10.322;2023-04-05T10:18:52;99689.75;;;7.90;100.00
72721;BME280;60835;50.974;10.322;2023-04-05T10:21:20;99690.69;;;7.26;100.00
72721;BME280;60835;50.974;10.322;2023-04-05T10:23:50;99685.84;;;6.81;100.00
72721;BME280;60835;50.974;10.322;2023-04-05T10:26:23;99690.72;;;7.64;100.00
72721;BME280;60835;50.974;10.322;2023-04-05T10:28:55;99677.84;;;8.10;100.00
72721;BME280;60835;50.974;10.322;2023-04-05T10:34:04;99682.50;;;7.30;100.00
72721;BME280;60835;50.974;10.322;2023-04-05T10:36:36;99673.75;;;7.93;100.00
72721;BME280;60835;50.974;10.322;2023-04-05T10:41:51;99664.44;;;9.31;100.00
72721;BME280;60835;50.974;10.322;2023-04-05T10:44:18;99658.41;;;10.94;100.00
72721;BME280;60835;50.974;10.322;2023-04-05T10:46:52;99662.31;;;9.47;100.00
72721;BME280;60835;50.974;10.322;2023-04-05T10:51:53;99673.72;;;8.78;100.00
72721;BME280;60835;50.974;10.322;2023-04-05T10:54:23;99660.78;;;9.78;100.00
72721;BME280;60835;50.974;10.322;2023-04-05T10:56:50;99641.16;;;12.81;100.00
72721;BME280;60835;50.974;10.322;2023-04-05T10:59:19;99638.78;;;9.89;97.92
72721;BME280;60835;50.974;10.322;2023-04-05T11:01:45;99636.81;;;10.46;98.74
72721;BME280;60835;50.974;10.322;2023-04-05T11:04:13;99635.09;;;11.50;100.00
72721;BME280;60835;50.974;10.322;2023-04-05T11:06:40;99635.28;;;11.28;97.68
72721;BME280;60835;50.974;10.322;2023-04-05T11:09:11;99629.53;;;12.04;98.40
72721;BME280;60835;50.974;10.322;2023-04-05T11:11:45;99628.94;;;11.19;97.70
72721;BME280;60835;50.974;10.322;2023-04-05T11:14:22;99623.56;;;11.30;98.08
72721;BME280;60835;50.974;10.322;2023-04-05T11:16:52;99603.66;;;13.22;95.66
72721;BME280;60835;50.974;10.322;2023-04-05T11:22:05;99616.19;;;9.96;96.38
72721;BME280;60835;50.974;10.322;2023-04-05T11:24:51;99616.63;;;10.34;97.10
72721;BME280;60835;50.974;10.322;2023-04-05T11:27:34;99613.53;;;11.85;96.46
72721;BME280;60835;50.974;10.322;2023-04-05T11:30:06;99597.19;;;10.67;93.11
72721;BME280;60835;50.974;10.322;2023-04-05T11:32:39;99600.84;;;12.38;97.01
72721;BME280;60835;50.974;10.322;2023-04-05T11:35:11;99596.94;;;12.42;93.98
72721;BME280;60835;50.974;10.322;2023-04-05T11:40:24;99612.72;;;8.94;96.48
72721;BME280;60835;50.974;10.322;2023-04-05T11:45:30;99602.25;;;9.94;100.00
72721;BME280;60835;50.974;10.322;2023-04-05T11:48:09;99609.31;;;8.81;96.19
72721;BME280;60835;50.974;10.322;2023-04-05T11:50:36;99594.28;;;11.32;94.27
72721;BME280;60835;50.974;10.322;2023-04-05T11:55:33;99591.91;;;13.06;91.73
72721;BME280;60835;50.974;10.322;2023-04-05T11:58:00;99574.41;;;14.50;88.00
72721;BME280;60835;50.974;10.322;2023-04-05T12:00:27;99577.81;;;12.67;85.06
72721;BME280;60835;50.974;10.322;2023-04-05T12:02:56;99574.44;;;12.84;86.46
72721;BME280;60835;50.974;10.322;2023-04-05T12:05:23;99577.66;;;12.68;89.51
72721;BME280;60835;50.974;10.322;2023-04-05T12:07:53;99577.75;;;10.77;86.29
72721;BME280;60835;50.974;10.322;2023-04-05T12:10:19;99572.91;;;12.91;89.95
72721;BME280;60835;50.974;10.322;2023-04-05T12:12:46;99560.88;;;12.87;90.14
72721;BME280;60835;50.974;10.322;2023-04-05T12:15:14;99557.97;;;13.09;85.70
72721;BME280;60835;50.974;10.322;2023-04-05T12:17:47;99575.75;;;11.62;85.87
72721;BME280;60835;50.974;10.322;2023-04-05T12:20:21;99552.94;;;14.52;87.41
72721;BME280;60835;50.974;10.322;2023-04-05T12:22:48;99545.94;;;14.69;81.78
72721;BME280;60835;50.974;10.322;2023-04-05T12:25:15;99562.69;;;13.62;79.60
72721;BME280;60835;50.974;10.322;2023-04-05T12:27:42;99565.47;;;11.18;84.45
72721;BME280;60835;50.974;10.322;2023-04-05T12:32:45;99550.28;;;12.30;87.92
72721;BME280;60835;50.974;10.322;2023-04-05T12:37:44;99556.41;;;11.41;86.03
72721;BME280;60835;50.974;10.322;2023-04-05T12:40:12;99550.84;;;12.43;90.17
72721;BME280;60835;50.974;10.322;2023-04-05T12:42:39;99527.00;;;14.72;82.79
72721;BME280;60835;50.974;10.322;2023-04-05T12:45:08;99538.38;;;11.35;82.90
72721;BME280;60835;50.974;10.322;2023-04-05T12:47:57;99532.31;;;13.27;87.23
72721;BME280;60835;50.974;10.322;2023-04-05T12:50:26;99504.78;;;16.16;82.10
72721;BME280;60835;50.974;10.322;2023-04-05T12:55:19;99528.44;;;12.93;82.15
72721;BME280;60835;50.974;10.322;2023-04-05T12:57:50;99531.00;;;11.69;83.25
72721;BME280;60835;50.974;10.322;2023-04-05T13:00:18;99529.00;;;11.91;86.27
72721;BME280;60835;50.974;10.322;2023-04-05T13:02:50;99521.75;;;11.93;84.70
72721;BME280;60835;50.974;10.322;2023-04-05T13:05:22;99520.97;;;11.42;86.63
72721;BME280;60835;50.974;10.322;2023-04-05T13:07:49;99517.47;;;10.28;87.14
72721;BME280;60835;50.974;10.322;2023-04-05T13:10:17;99514.75;;;11.83;86.97
72721;BME280;60835;50.974;10.322;2023-04-05T13:12:46;99518.03;;;10.64;89.98
72721;BME280;60835;50.974;10.322;2023-04-05T13:15:14;99517.28;;;11.24;88.75
72721;BME280;60835;50.974;10.322;2023-04-05T13:17:44;99517.75;;;11.08;89.47
72721;BME280;60835;50.974;10.322;2023-04-05T13:20:10;99509.94;;;10.13;87.52
72721;BME280;60835;50.974;10.322;2023-04-05T13:22:40;99511.88;;;11.35;87.19
72721;BME280;60835;50.974;10.322;2023-04-05T13:25:07;99500.84;;;10.99;86.69
72721;BME280;60835;50.974;10.322;2023-04-05T13:27:35;99498.63;;;12.34;86.66
72721;BME280;60835;50.974;10.322;2023-04-05T13:30:02;99483.34;;;13.30;86.00
72721;BME280;60835;50.974;10.322;2023-04-05T13:32:29;99484.59;;;12.60;86.03
72721;BME280;60835;50.974;10.322;2023-04-05T13:34:55;99478.44;;;13.89;84.35